sensor_id;sensor_type;location;lat;lon;timestamp;temperature;humidity
66026;SHT31;56312;55.976;37.136;2023-04-19T00:03:54;8.11;62.58
66026;SHT31;56312;55.976;37.136;2023-04-19T00:09:01;8.15;62.45
66026;SHT31;56312;55.976;37.136;2023-04-19T00:14:07;8.18;62.39
66026;SHT31;56312;55.976;37.136;2023-04-19T00:19:13;8.16;62.30
66026;SHT31;56312;55.976;37.136;2023-04-19T00:24:20;8.14;62.15
66026;SHT31;56312;55.976;37.136;2023-04-19T00:29:26;8.12;62.13
66026;SHT31;56312;55.976;37.136;2023-04-19T00:34:33;8.07;62.11
66026;SHT31;56312;55.976;37.136;2023-04-19T00:39:39;8.01;62.12
66026;SHT31;56312;55.976;37.136;2023-04-19T00:44:46;7.98;62.16
66026;SHT31;56312;55.976;37.136;2023-04-19T00:49:52;7.93;62.18
66026;SHT31;56312;55.976;37.136;2023-04-19T00:54:59;7.88;62.24
66026;SHT31;56312;55.976;37.136;2023-04-19T01:00:06;7.84;62.28
66026;SHT31;56312;55.976;37.136;2023-04-19T01:05:14;7.81;62.24
66026;SHT31;56312;55.976;37.136;2023-04-19T01:10:21;7.76;62.22
66026;SHT31;56312;55.976;37.136;2023-04-19T01:15:27;7.78;62.25
66026;SHT31;56312;55.976;37.136;2023-04-19T01:20:34;7.74;62.17
66026;SHT31;56312;55.976;37.136;2023-04-19T01:25:41;7.71;62.18
66026;SHT31;56312;55.976;37.136;2023-04-19T01:30:47;7.69;62.23
66026;SHT31;56312;55.976;37.136;2023-04-19T01:35:56;7.65;62.29
66026;SHT31;56312;55.976;37.136;2023-04-19T01:41:02;7.59;62.34
66026;SHT31;56312;55.976;37.136;2023-04-19T01:46:08;7.57;62.39
66026;SHT31;56312;55.976;37.136;2023-04-19T01:51:14;7.53;62.45
66026;SHT31;56312;55.976;37.136;2023-04-19T01:56:22;7.50;62.39
66026;SHT31;56312;55.976;37.136;2023-04-19T02:01:28;7.53;62.40
66026;SHT31;56312;55.976;37.136;2023-04-19T02:06:35;7.50;62.44
66026;SHT31;56312;55.976;37.136;2023-04-19T02:11:41;7.49;62.39
66026;SHT31;56312;55.976;37.136;2023-04-19T02:16:48;7.53;62.33
66026;SHT31;56312;55.976;37.136;2023-04-19T02:21:54;7.57;62.25
66026;SHT31;56312;55.976;37.136;2023-04-19T02:27:02;7.57;62.15
66026;SHT31;56312;55.976;37.136;2023-04-19T02:32:11;7.60;62.09
66026;SHT31;56312;55.976;37.136;2023-04-19T02:37:17;7.62;62.07
66026;SHT31;56312;55.976;37.136;2023-04-19T02:42:24;7.60;62.03
66026;SHT31;56312;55.976;37.136;2023-04-19T02:47:30;7.56;62.11
66026;SHT31;56312;55.976;37.136;2023-04-19T02:52:36;7.56;62.10
66026;SHT31;56312;55.976;37.136;2023-04-19T02:57:42;7.50;62.11
66026;SHT31;56312;55.976;37.136;2023-04-19T03:02:49;7.49;62.19
66026;SHT31;56312;55.976;37.136;2023-04-19T03:07:55;7.49;62.23
66026;SHT31;56312;55.976;37.136;2023-04-19T03:13:01;7.50;62.15
66026;SHT31;56312;55.976;37.136;2023-04-19T03:18:08;7.53;62.13
66026;SHT31;56312;55.976;37.136;2023-04-19T03:23:14;7.52;62.07
66026;SHT31;56312;55.976;37.136;2023-04-19T03:28:21;7.55;62.08
66026;SHT31;56312;55.976;37.136;2023-04-19T03:33:28;7.55;62.12
66026;SHT31;56312;55.976;37.136;2023-04-19T03:38:34;7.59;62.10
66026;SHT31;56312;55.976;37.136;2023-04-19T03:43:41;7.60;62.12
66026;SHT31;56312;55.976;37.136;2023-04-19T03:48:47;7.60;62.13
66026;SHT31;56312;55.976;37.136;2023-04-19T03:53:54;7.62;62.19
66026;SHT31;56312;55.976;37.136;2023-04-19T03:59:00;7.62;62.12
66026;SHT31;56312;55.976;37.136;2023-04-19T04:04:07;7.66;62.17
66026;SHT31;56312;55.976;37.136;2023-04-19T04:09:14;7.73;62.18
66026;SHT31;56312;55.976;37.136;2023-04-19T04:14:20;7.74;62.12
66026;SHT31;56312;55.976;37.136;2023-04-19T04:19:26;7.80;62.14
66026;SHT31;56312;55.976;37.136;2023-04-19T04:24:39;7.84;62.17
66026;SHT31;56312;55.976;37.136;2023-04-19T04:29:49;7.88;62.14
66026;SHT31;56312;55.976;37.136;2023-04-19T04:34:55;7.88;62.17
66026;SHT31;56312;55.976;37.136;2023-04-19T04:40:02;7.88;62.17
66026;SHT31;56312;55.976;37.136;2023-04-19T04:45:11;7.88;62.20
66026;SHT31;56312;55.976;37.136;2023-04-19T04:50:18;7.87;62.27
66026;SHT31;56312;55.976;37.136;2023-04-19T04:55:24;7.90;62.28
66026;SHT31;56312;55.976;37.136;2023-04-19T05:00:31;7.88;62.35
66026;SHT31;56312;55.976;37.136;2023-04-19T05:05:37;7.87;62.37
66026;SHT31;56312;55.976;37.136;2023-04-19T05:10:44;7.94;62.55
66026;SHT31;56312;55.976;37.136;2023-04-19T05:15:50;7.99;62.53
66026;SHT31;56312;55.976;37.136;2023-04-19T05:20:57;7.98;62.65
66026;SHT31;56312;55.976;37.136;2023-04-19T05:26:03;8.09;62.69
66026;SHT31;56312;55.976;37.136;2023-04-19T05:31:10;8.32;62.63
66026;SHT31;56312;55.976;37.136;2023-04-19T05:36:17;8.63;62.60
66026;SHT31;56312;55.976;37.136;2023-04-19T05:41:23;9.00;62.55
66026;SHT31;56312;55.976;37.136;2023-04-19T05:46:29;9.24;62.33
66026;SHT31;56312;55.976;37.136;2023-04-19T05:51:36;9.27;62.06
66026;SHT31;56312;55.976;37.136;2023-04-19T05:56:42;9.40;61.97
66026;SHT31;56312;55.976;37.136;2023-04-19T06:01:48;9.58;61.66
66026;SHT31;56312;55.976;37.136;2023-04-19T06:06:55;9.65;61.49
66026;SHT31;56312;55.976;37.136;2023-04-19T06:12:01;9.80;61.45
66026;SHT31;56312;55.976;37.136;2023-04-19T06:17:08;9.80;61.28
66026;SHT31;56312;55.976;37.136;2023-04-19T06:22:14;9.79;60.98
66026;SHT31;56312;55.976;37.136;2023-04-19T06:27:20;9.82;60.98
66026;SHT31;56312;55.976;37.136;2023-04-19T06:32:27;9.90;60.94
66026;SHT31;56312;55.976;37.136;2023-04-19T06:37:33;9.94;60.79
66026;SHT31;56312;55.976;37.136;2023-04-19T06:42:39;10.01;60.71
66026;SHT31;56312;55.976;37.136;2023-04-19T06:47:46;10.13;60.73
66026;SHT31;56312;55.976;37.136;2023-04-19T06:52:52;10.25;60.85
66026;SHT31;56312;55.976;37.136;2023-04-19T06:57:59;10.24;60.63
66026;SHT31;56312;55.976;37.136;2023-04-19T07:03:05;10.22;60.61
66026;SHT31;56312;55.976;37.136;2023-04-19T07:08:11;10.18;60.44
66026;SHT31;56312;55.976;37.136;2023-04-19T07:13:18;10.27;60.42
66026;SHT31;56312;55.976;37.136;2023-04-19T07:18:24;10.40;60.31
66026;SHT31;56312;55.976;37.136;2023-04-19T07:23:30;10.37;60.20
66026;SHT31;56312;55.976;37.136;2023-04-19T07:28:38;10.44;60.23
66026;SHT31;56312;55.976;37.136;2023-04-19T07:33:45;10.55;60.19
66026;SHT31;56312;55.976;37.136;2023-04-19T07:38:51;10.76;60.18
66026;SHT31;56312;55.976;37.136;2023-04-19T07:43:58;10.82;60.04
66026;SHT31;56312;55.976;37.136;2023-04-19T07:49:04;10.96;59.84
66026;SHT31;56312;55.976;37.136;2023-04-19T07:54:11;11.07;60.03
66026;SHT31;56312;55.976;37.136;2023-04-19T07:59:17;11.23;59.91
66026;SHT31;56312;55.976;37.136;2023-04-19T08:04:23;11.42;59.81
66026;SHT31;56312;55.976;37.136;2023-04-19T08:09:32;11.61;59.76
66026;SHT31;56312;55.976;37.136;2023-04-19T08:14:39;12.09;59.79
66026;SHT31;56312;55.976;37.136;2023-04-19T08:19:46;12.17;59.53
66026;SHT31;56312;55.976;37.136;2023-04-19T08:24:54;12.16;59.49
66026;SHT31;56312;55.976;37.136;2023-04-19T08:30:00;12.31;59.26
66026;SHT31;56312;55.976;37.136;2023-04-19T08:35:07;12.50;59.19
66026;SHT31;56312;55.976;37.136;2023-04-19T08:40:14;12.71;59.04
66026;SHT31;56312;55.976;37.136;2023-04-19T08:45:26;12.79;58.84
66026;SHT31;56312;55.976;37.136;2023-04-19T08:50:32;12.88;58.79
66026;SHT31;56312;55.976;37.136;2023-04-19T08:55:41;12.99;58.62
66026;SHT31;56312;55.976;37.136;2023-04-19T09:00:48;13.10;58.21
66026;SHT31;56312;55.976;37.136;2023-04-19T09:05:55;13.19;58.15
66026;SHT31;56312;55.976;37.136;2023-04-19T09:11:02;13.34;58.05
66026;SHT31;56312;55.976;37.136;2023-04-19T09:16:23;13.44;57.97
66026;SHT31;56312;55.976;37.136;2023-04-19T09:21:31;13.83;57.84
66026;SHT31;56312;55.976;37.136;2023-04-19T09:26:39;13.75;57.45
66026;SHT31;56312;55.976;37.136;2023-04-19T09:31:58;13.78;57.01
66026;SHT31;56312;55.976;37.136;2023-04-19T09:37:12;13.89;57.29
66026;SHT31;56312;55.976;37.136;2023-04-19T09:42:18;13.82;56.91
66026;SHT31;56312;55.976;37.136;2023-04-19T09:47:26;13.94;56.99
66026;SHT31;56312;55.976;37.136;2023-04-19T09:52:35;14.20;56.90
66026;SHT31;56312;55.976;37.136;2023-04-19T09:57:41;14.30;56.73
66026;SHT31;56312;55.976;37.136;2023-04-19T10:02:51;14.26;56.45
66026;SHT31;56312;55.976;37.136;2023-04-19T10:08:03;14.29;56.38
66026;SHT31;56312;55.976;37.136;2023-04-19T10:13:11;14.25;56.59
66026;SHT31;56312;55.976;37.136;2023-04-19T10:18:18;14.39;56.56
66026;SHT31;56312;55.976;37.136;2023-04-19T10:23:25;14.34;56.18
66026;SHT31;56312;55.976;37.136;2023-04-19T10:28:34;14.28;56.13
66026;SHT31;56312;55.976;37.136;2023-04-19T10:33:41;14.55;56.50
66026;SHT31;56312;55.976;37.136;2023-04-19T10:38:48;14.66;56.15
66026;SHT31;56312;55.976;37.136;2023-04-19T10:49:04;14.84;55.95
66026;SHT31;56312;55.976;37.136;2023-04-19T10:54:32;14.64;55.94
66026;SHT31;56312;55.976;37.136;2023-04-19T10:59:39;14.96;55.96
66026;SHT31;56312;55.976;37.136;2023-04-19T11:04:59;15.15;55.79
66026;SHT31;56312;55.976;37.136;2023-04-19T11:10:06;15.29;55.98
66026;SHT31;56312;55.976;37.136;2023-04-19T11:15:13;15.15;55.45
66026;SHT31;56312;55.976;37.136;2023-04-19T11:20:22;15.47;55.59
66026;SHT31;56312;55.976;37.136;2023-04-19T11:25:29;15.46;55.25
66026;SHT31;56312;55.976;37.136;2023-04-19T11:30:38;15.60;55.34
66026;SHT31;56312;55.976;37.136;2023-04-19T11:35:45;15.57;55.22
66026;SHT31;56312;55.976;37.136;2023-04-19T11:40:59;15.81;55.30
66026;SHT31;56312;55.976;37.136;2023-04-19T11:46:09;15.61;54.95
66026;SHT31;56312;55.976;37.136;2023-04-19T11:51:16;15.63;55.13
66026;SHT31;56312;55.976;37.136;2023-04-19T11:56:22;15.57;55.09
66026;SHT31;56312;55.976;37.136;2023-04-19T12:01:28;15.38;54.69
66026;SHT31;56312;55.976;37.136;2023-04-19T12:06:37;15.28;54.63
66026;SHT31;56312;55.976;37.136;2023-04-19T12:11:45;15.25;54.60
66026;SHT31;56312;55.976;37.136;2023-04-19T12:17:13;15.44;54.61
66026;SHT31;56312;55.976;37.136;2023-04-19T12:22:20;15.71;54.58
66026;SHT31;56312;55.976;37.136;2023-04-19T12:27:29;15.67;54.24
66026;SHT31;56312;55.976;37.136;2023-04-19T12:32:35;15.54;54.02
66026;SHT31;56312;55.976;37.136;2023-04-19T12:37:41;15.43;54.32
66026;SHT31;56312;55.976;37.136;2023-04-19T12:42:48;15.23;54.04
66026;SHT31;56312;55.976;37.136;2023-04-19T12:47:54;15.16;53.87
66026;SHT31;56312;55.976;37.136;2023-04-19T12:53:02;15.28;54.03
66026;SHT31;56312;55.976;37.136;2023-04-19T12:58:08;15.38;54.00
66026;SHT31;56312;55.976;37.136;2023-04-19T13:03:14;15.43;53.88
66026;SHT31;56312;55.976;37.136;2023-04-19T13:08:21;15.42;54.00
66026;SHT31;56312;55.976;37.136;2023-04-19T13:13:27;15.26;53.58
66026;SHT31;56312;55.976;37.136;2023-04-19T13:18:34;15.09;53.35
66026;SHT31;56312;55.976;37.136;2023-04-19T13:23:42;15.02;53.55
66026;SHT31;56312;55.976;37.136;2023-04-19T13:28:49;14.91;53.21
66026;SHT31;56312;55.976;37.136;2023-04-19T13:33:55;14.91;53.18
66026;SHT31;56312;55.976;37.136;2023-04-19T13:39:02;14.89;53.11
66026;SHT31;56312;55.976;37.136;2023-04-19T13:44:08;14.99;53.23
66026;SHT31;56312;55.976;37.136;2023-04-19T13:49:15;15.15;53.23
66026;SHT31;56312;55.976;37.136;2023-04-19T13:54:22;15.15;52.79
66026;SHT31;56312;55.976;37.136;2023-04-19T13:59:28;15.11;53.05
66026;SHT31;56312;55.976;37.136;2023-04-19T14:04:35;15.05;52.97
66026;SHT31;56312;55.976;37.136;2023-04-19T14:09:41;14.99;53.01
66026;SHT31;56312;55.976;37.136;2023-04-19T14:14:47;14.94;52.71
66026;SHT31;56312;55.976;37.136;2023-04-19T14:19:54;14.95;52.76
66026;SHT31;56312;55.976;37.136;2023-04-19T14:25:02;14.99;52.75
66026;SHT31;56312;55.976;37.136;2023-04-19T14:30:09;14.89;52.75
66026;SHT31;56312;55.976;37.136;2023-04-19T14:35:15;14.88;52.71
66026;SHT31;56312;55.976;37.136;2023-04-19T14:40:22;14.84;52.70
66026;SHT31;56312;55.976;37.136;2023-04-19T14:45:29;14.66;52.57
66026;SHT31;56312;55.976;37.136;2023-04-19T14:50:35;14.59;52.67
66026;SHT31;56312;55.976;37.136;2023-04-19T14:55:41;14.55;52.36
66026;SHT31;56312;55.976;37.136;2023-04-19T15:00:48;14.48;52.54
66026;SHT31;56312;55.976;37.136;2023-04-19T15:05:54;14.32;52.35
66026;SHT31;56312;55.976;37.136;2023-04-19T15:11:00;14.19;52.38
66026;SHT31;56312;55.976;37.136;2023-04-19T15:16:07;14.12;52.39
66026;SHT31;56312;55.976;37.136;2023-04-19T15:21:14;14.08;52.25
66026;SHT31;56312;55.976;37.136;2023-04-19T15:26:20;14.06;52.46
66026;SHT31;56312;55.976;37.136;2023-04-19T15:31:26;13.97;52.33
66026;SHT31;56312;55.976;37.136;2023-04-19T15:36:33;13.88;52.38
66026;SHT31;56312;55.976;37.136;2023-04-19T15:41:39;13.82;52.52
66026;SHT31;56312;55.976;37.136;2023-04-19T15:46:45;13.72;52.42
66026;SHT31;56312;55.976;37.136;2023-04-19T15:51:52;13.68;52.35
66026;SHT31;56312;55.976;37.136;2023-04-19T15:56:58;13.60;52.43
66026;SHT31;56312;55.976;37.136;2023-04-19T16:02:05;13.50;52.58
66026;SHT31;56312;55.976;37.136;2023-04-19T16:07:11;13.37;52.66
66026;SHT31;56312;55.976;37.136;2023-04-19T16:12:18;13.20;52.80
66026;SHT31;56312;55.976;37.136;2023-04-19T16:17:24;13.06;52.69
66026;SHT31;56312;55.976;37.136;2023-04-19T16:22:30;12.89;52.72
66026;SHT31;56312;55.976;37.136;2023-04-19T16:27:42;12.72;52.86
66026;SHT31;56312;55.976;37.136;2023-04-19T16:32:49;12.58;53.00
66026;SHT31;56312;55.976;37.136;2023-04-19T16:37:55;12.38;53.14
66026;SHT31;56312;55.976;37.136;2023-04-19T16:43:01;12.23;53.25
66026;SHT31;56312;55.976;37.136;2023-04-19T16:48:09;12.03;53.35
66026;SHT31;56312;55.976;37.136;2023-04-19T16:53:16;11.83;53.46
66026;SHT31;56312;55.976;37.136;2023-04-19T16:58:22;11.65;53.63
66026;SHT31;56312;55.976;37.136;2023-04-19T17:03:29;11.50;53.93
66026;SHT31;56312;55.976;37.136;2023-04-19T17:08:35;11.41;54.01
66026;SHT31;56312;55.976;37.136;2023-04-19T17:13:43;11.21;54.14
66026;SHT31;56312;55.976;37.136;2023-04-19T17:18:52;11.00;54.13
66026;SHT31;56312;55.976;37.136;2023-04-19T17:23:59;10.84;54.37
66026;SHT31;56312;55.976;37.136;2023-04-19T17:29:05;10.69;54.51
66026;SHT31;56312;55.976;37.136;2023-04-19T17:34:11;10.58;54.55
66026;SHT31;56312;55.976;37.136;2023-04-19T17:39:18;10.52;54.54
66026;SHT31;56312;55.976;37.136;2023-04-19T17:44:24;10.38;54.64
66026;SHT31;56312;55.976;37.136;2023-04-19T17:49:31;10.28;54.69
66026;SHT31;56312;55.976;37.136;2023-04-19T17:54:37;10.21;54.79
66026;SHT31;56312;55.976;37.136;2023-04-19T17:59:44;10.08;54.85
66026;SHT31;56312;55.976;37.136;2023-04-19T18:04:50;10.01;54.95
66026;SHT31;56312;55.976;37.136;2023-04-19T18:09:56;9.89;54.93
66026;SHT31;56312;55.976;37.136;2023-04-19T18:15:03;9.84;54.86
66026;SHT31;56312;55.976;37.136;2023-04-19T18:20:11;9.72;54.99
66026;SHT31;56312;55.976;37.136;2023-04-19T18:25:18;9.59;55.02
66026;SHT31;56312;55.976;37.136;2023-04-19T18:30:24;9.53;55.24
66026;SHT31;56312;55.976;37.136;2023-04-19T18:35:30;9.38;55.38
66026;SHT31;56312;55.976;37.136;2023-04-19T18:40:37;9.22;55.46
66026;SHT31;56312;55.976;37.136;2023-04-19T18:45:44;9.15;55.30
66026;SHT31;56312;55.976;37.136;2023-04-19T18:50:50;9.01;55.56
66026;SHT31;56312;55.976;37.136;2023-04-19T18:55:57;8.90;55.52
66026;SHT31;56312;55.976;37.136;2023-04-19T19:01:03;8.85;55.46
66026;SHT31;56312;55.976;37.136;2023-04-19T19:06:09;8.80;55.41
66026;SHT31;56312;55.976;37.136;2023-04-19T19:11:17;8.67;55.91
66026;SHT31;56312;55.976;37.136;2023-04-19T19:16:24;8.53;55.80
66026;SHT31;56312;55.976;37.136;2023-04-19T19:21:30;8.45;55.84
66026;SHT31;56312;55.976;37.136;2023-04-19T19:26:37;8.41;55.90
66026;SHT31;56312;55.976;37.136;2023-04-19T19:31:43;8.36;55.85
66026;SHT31;56312;55.976;37.136;2023-04-19T19:36:49;8.32;55.78
66026;SHT31;56312;55.976;37.136;2023-04-19T19:41:56;8.22;56.25
66026;SHT31;56312;55.976;37.136;2023-04-19T19:47:02;8.04;56.35
66026;SHT31;56312;55.976;37.136;2023-04-19T19:52:08;7.98;56.39
66026;SHT31;56312;55.976;37.136;2023-04-19T19:57:15;7.78;56.65
66026;SHT31;56312;55.976;37.136;2023-04-19T20:02:22;7.60;56.79
66026;SHT31;56312;55.976;37.136;2023-04-19T20:07:29;7.57;57.09
66026;SHT31;56312;55.976;37.136;2023-04-19T20:12:36;7.50;57.11
66026;SHT31;56312;55.976;37.136;2023-04-19T20:17:43;7.29;57.44
66026;SHT31;56312;55.976;37.136;2023-04-19T20:22:49;7.32;57.31
66026;SHT31;56312;55.976;37.136;2023-04-19T20:27:56;7.23;57.53
66026;SHT31;56312;55.976;37.136;2023-04-19T20:33:02;7.22;57.53
66026;SHT31;56312;55.976;37.136;2023-04-19T20:38:08;7.19;57.41
66026;SHT31;56312;55.976;37.136;2023-04-19T20:43:15;7.14;57.31
66026;SHT31;56312;55.976;37.136;2023-04-19T20:48:21;7.12;57.39
66026;SHT31;56312;55.976;37.136;2023-04-19T20:53:28;7.09;57.71
66026;SHT31;56312;55.976;37.136;2023-04-19T20:58:34;7.01;57.68
66026;SHT31;56312;55.976;37.136;2023-04-19T21:03:43;6.85;57.60
66026;SHT31;56312;55.976;37.136;2023-04-19T21:08:49;6.74;57.98
66026;SHT31;56312;55.976;37.136;2023-04-19T21:13:56;6.71;58.18
66026;SHT31;56312;55.976;37.136;2023-04-19T21:19:02;6.73;58.03
66026;SHT31;56312;55.976;37.136;2023-04-19T21:24:08;6.66;58.14
66026;SHT31;56312;55.976;37.136;2023-04-19T21:29:15;6.50;58.18
66026;SHT31;56312;55.976;37.136;2023-04-19T21:34:21;6.45;58.12
66026;SHT31;56312;55.976;37.136;2023-04-19T21:39:28;6.29;58.42
66026;SHT31;56312;55.976;37.136;2023-04-19T21:44:34;6.14;58.59
66026;SHT31;56312;55.976;37.136;2023-04-19T21:49:41;5.88;58.61
66026;SHT31;56312;55.976;37.136;2023-04-19T21:54:47;5.70;58.72
66026;SHT31;56312;55.976;37.136;2023-04-19T21:59:54;5.61;58.93
66026;SHT31;56312;55.976;37.136;2023-04-19T22:05:01;5.56;59.14
66026;SHT31;56312;55.976;37.136;2023-04-19T22:10:08;5.61;59.33
66026;SHT31;56312;55.976;37.136;2023-04-19T22:15:14;5.56;59.48
66026;SHT31;56312;55.976;37.136;2023-04-19T22:20:21;5.19;59.30
66026;SHT31;56312;55.976;37.136;2023-04-19T22:25:27;5.07;59.68
66026;SHT31;56312;55.976;37.136;2023-04-19T22:30:33;5.26;59.57
66026;SHT31;56312;55.976;37.136;2023-04-19T22:35:40;5.40;59.47
66026;SHT31;56312;55.976;37.136;2023-04-19T22:40:46;5.47;59.39
66026;SHT31;56312;55.976;37.136;2023-04-19T22:45:52;5.42;59.60
66026;SHT31;56312;55.976;37.136;2023-04-19T22:50:59;5.29;59.63
66026;SHT31;56312;55.976;37.136;2023-04-19T22:56:06;5.13;59.88
66026;SHT31;56312;55.976;37.136;2023-04-19T23:01:12;4.98;59.76
66026;SHT31;56312;55.976;37.136;2023-04-19T23:06:18;5.05;59.63
66026;SHT31;56312;55.976;37.136;2023-04-19T23:11:25;4.91;59.61
66026;SHT31;56312;55.976;37.136;2023-04-19T23:16:31;4.84;59.79
66026;SHT31;56312;55.976;37.136;2023-04-19T23:21:38;4.68;60.07
66026;SHT31;56312;55.976;37.136;2023-04-19T23:26:44;4.64;60.30
66026;SHT31;56312;55.976;37.136;2023-04-19T23:31:50;4.64;60.34
66026;SHT31;56312;55.976;37.136;2023-04-19T23:36:57;4.52;60.25
66026;SHT31;56312;55.976;37.136;2023-04-19T23:42:04;4.36;60.48
66026;SHT31;56312;55.976;37.136;2023-04-19T23:47:10;4.29;60.67
66026;SHT31;56312;55.976;37.136;2023-04-19T23:52:17;4.08;60.54
66026;SHT31;56312;55.976;37.136;2023-04-19T23:57:23;3.79;60.51
